createdAt,value
2023-03-24T00:00:34.646Z,10.10
2023-03-24T00:03:02.726Z,10.20
2023-03-24T00:05:31.032Z,10.20
2023-03-24T00:08:03.003Z,10.20
2023-03-24T00:10:34.663Z,10.20
2023-03-24T00:13:03.150Z,10.20
2023-03-24T00:15:31.253Z,10.20
2023-03-24T00:17:59.068Z,10.20
2023-03-24T00:20:27.071Z,10.10
2023-03-24T00:22:59.222Z,10.20
2023-03-24T00:25:33.897Z,10.10
2023-03-24T00:28:03.026Z,10.10
2023-03-24T00:30:30.433Z,10.10
2023-03-24T00:32:59.059Z,10.10
2023-03-24T00:35:26.685Z,10.00
2023-03-24T00:37:54.597Z,10.00
2023-03-24T00:40:22.700Z,10.00
2023-03-24T00:42:50.806Z,10.00
2023-03-24T00:45:23.717Z,10.00
2023-03-24T00:47:54.837Z,9.90
2023-03-24T00:50:26.496Z,9.90
2023-03-24T00:52:55.089Z,9.90
2023-03-24T00:55:23.065Z,9.90
2023-03-24T00:57:51.230Z,9.90
2023-03-24T01:00:24.067Z,9.90
2023-03-24T01:02:55.978Z,9.90
2023-03-24T01:05:26.001Z,9.80
2023-03-24T01:07:57.232Z,9.90
2023-03-24T01:10:26.345Z,9.80
2023-03-24T01:12:56.985Z,9.90
2023-03-24T01:15:29.420Z,9.90
2023-03-24T01:20:25.325Z,9.90
2023-03-24T01:25:23.158Z,9.90
2023-03-24T01:27:52.950Z,9.90
2023-03-24T01:30:26.188Z,9.80
2023-03-24T01:32:53.885Z,9.90
2023-03-24T01:35:23.410Z,9.70
2023-03-24T01:37:50.873Z,9.80
2023-03-24T01:40:24.228Z,9.80
2023-03-24T01:42:52.233Z,9.80
2023-03-24T01:45:38.481Z,9.80
2023-03-24T01:48:26.370Z,9.50
2023-03-24T01:51:08.402Z,9.80
2023-03-24T01:53:40.752Z,9.80
2023-03-24T01:56:09.331Z,9.80
2023-03-24T01:58:44.528Z,9.80
2023-03-24T02:01:30.107Z,9.70
2023-03-24T02:04:07.693Z,9.60
2023-03-24T02:06:41.256Z,9.60
2023-03-24T02:09:10.391Z,9.70
2023-03-24T02:11:39.281Z,9.60
2023-03-24T02:14:08.935Z,9.60
2023-03-24T02:16:42.655Z,9.60
2023-03-24T02:19:40.307Z,9.60
2023-03-24T02:22:26.328Z,9.50
2023-03-24T02:25:18.167Z,9.50
2023-03-24T02:28:13.300Z,9.50
2023-03-24T02:31:08.658Z,9.50
2023-03-24T02:34:07.307Z,9.50
2023-03-24T02:37:12.767Z,9.40
2023-03-24T02:39:58.128Z,9.50
2023-03-24T02:42:49.709Z,9.40
2023-03-24T02:45:33.059Z,9.30
2023-03-24T02:48:15.539Z,9.30
2023-03-24T02:50:56.487Z,9.40
2023-03-24T02:53:28.574Z,9.30
2023-03-24T02:56:29.946Z,9.30
2023-03-24T02:59:09.439Z,9.30
2023-03-24T03:01:54.524Z,9.10
2023-03-24T03:04:46.412Z,9.20
2023-03-24T03:07:16.963Z,9.20
2023-03-24T03:09:51.860Z,8.90
2023-03-24T03:12:22.634Z,9.20
2023-03-24T03:15:06.836Z,9.10
2023-03-24T03:17:39.764Z,9.10
2023-03-24T03:20:16.165Z,9.10
2023-03-24T03:22:49.852Z,9.10
2023-03-24T03:25:27.089Z,9.00
2023-03-24T03:27:58.653Z,9.00
2023-03-24T03:30:43.308Z,10.40
2023-03-24T03:33:40.959Z,9.00
2023-03-24T03:36:22.443Z,8.90
2023-03-24T03:39:07.006Z,7.10
2023-03-24T03:41:34.514Z,8.90
2023-03-24T03:44:02.348Z,8.90
2023-03-24T03:48:58.845Z,8.80
2023-03-24T03:51:26.551Z,8.80
2023-03-24T03:54:01.063Z,8.80
2023-03-24T03:56:32.604Z,8.70
2023-03-24T03:59:35.401Z,8.70
2023-03-24T04:02:26.022Z,8.70
2023-03-24T04:05:14.151Z,8.80
2023-03-24T04:08:03.983Z,8.80
2023-03-24T04:11:24.466Z,8.80
2023-03-24T04:14:19.853Z,8.80
2023-03-24T04:17:16.859Z,8.80
2023-03-24T04:20:05.645Z,8.90
2023-03-24T04:22:45.059Z,8.90
2023-03-24T04:25:20.577Z,9.30
2023-03-24T04:28:26.625Z,9.00
2023-03-24T04:31:14.928Z,9.00
2023-03-24T04:33:58.391Z,9.00
2023-03-24T04:36:43.946Z,9.00
2023-03-24T04:39:38.876Z,9.10
2023-03-24T04:42:19.300Z,9.00
2023-03-24T04:44:51.380Z,8.70
2023-03-24T04:47:27.625Z,9.50
2023-03-24T04:50:13.673Z,9.20
2023-03-24T04:52:42.855Z,8.80
2023-03-24T04:55:36.478Z,8.80
2023-03-24T04:58:04.131Z,8.90
2023-03-24T05:00:32.059Z,8.80
2023-03-24T05:03:00.025Z,9.40
2023-03-24T05:05:28.521Z,10.50
2023-03-24T05:07:56.932Z,8.80
2023-03-24T05:10:24.850Z,8.70
2023-03-24T05:12:55.869Z,8.90
2023-03-24T05:15:46.904Z,8.80
2023-03-24T05:18:28.840Z,8.70
2023-03-24T05:20:57.755Z,8.60
2023-03-24T05:23:26.009Z,9.10
2023-03-24T05:25:54.417Z,8.60
2023-03-24T05:28:23.894Z,9.00
2023-03-24T05:30:53.495Z,8.50
2023-03-24T05:33:37.193Z,8.80
2023-03-24T05:36:05.447Z,8.50
2023-03-24T05:38:34.135Z,8.50
2023-03-24T05:41:02.255Z,8.50
2023-03-24T05:43:35.712Z,8.50
2023-03-24T05:46:15.526Z,9.40
2023-03-24T05:48:44.236Z,9.30
2023-03-24T05:51:14.503Z,8.60
2023-03-24T05:53:42.506Z,8.60
2023-03-24T05:56:15.417Z,8.60
2023-03-24T05:59:12.167Z,8.50
2023-03-24T06:02:00.347Z,8.70
2023-03-24T06:04:49.325Z,8.50
2023-03-24T06:07:19.706Z,8.40
2023-03-24T06:09:50.963Z,8.50
2023-03-24T06:12:18.716Z,8.40
2023-03-24T06:14:53.482Z,9.50
2023-03-24T06:17:21.393Z,8.40
2023-03-24T06:19:51.997Z,8.40
2023-03-24T06:22:29.181Z,8.50
2023-03-24T06:24:56.625Z,8.40
2023-03-24T06:27:26.045Z,8.60
2023-03-24T06:29:55.227Z,9.10
2023-03-24T06:32:23.606Z,8.50
2023-03-24T06:34:50.920Z,8.60
2023-03-24T06:37:32.411Z,8.80
2023-03-24T06:40:01.635Z,9.80
2023-03-24T06:42:32.105Z,9.30
2023-03-24T06:44:59.449Z,9.00
2023-03-24T06:47:26.979Z,9.70
2023-03-24T06:49:54.549Z,8.80
2023-03-24T06:52:21.961Z,8.70
2023-03-24T06:54:49.297Z,8.90
2023-03-24T06:57:17.973Z,9.00
2023-03-24T07:00:05.818Z,9.00
2023-03-24T07:02:38.388Z,8.90
2023-03-24T07:05:08.160Z,9.80
2023-03-24T07:10:44.467Z,9.00
2023-03-24T07:13:12.021Z,9.10
2023-03-24T07:15:41.126Z,9.20
2023-03-24T07:20:41.437Z,9.70
2023-03-24T07:25:54.672Z,9.40
2023-03-24T07:28:37.382Z,9.40
2023-03-24T07:31:06.841Z,9.60
2023-03-24T07:33:34.558Z,9.60
2023-03-24T07:36:02.182Z,10.10
2023-03-24T07:38:29.666Z,9.70
2023-03-24T07:43:33.130Z,9.80
2023-03-24T07:48:47.568Z,9.90
2023-03-24T07:51:19.807Z,10.20
2023-03-24T07:53:54.495Z,10.40
2023-03-24T07:56:30.089Z,10.30
2023-03-24T07:58:59.576Z,10.30
2023-03-24T08:01:44.280Z,10.60
2023-03-24T08:04:13.974Z,10.90
2023-03-24T08:06:47.679Z,10.60
2023-03-24T08:09:15.127Z,10.60
2023-03-24T08:11:42.613Z,11.70
2023-03-24T08:16:39.055Z,10.70
2023-03-24T08:19:06.656Z,10.70
2023-03-24T08:21:34.261Z,10.80
2023-03-24T08:24:01.894Z,11.00
2023-03-24T08:26:29.322Z,11.00
2023-03-24T08:28:57.008Z,10.90
2023-03-24T08:31:24.358Z,11.00
2023-03-24T08:33:54.181Z,11.10
2023-03-24T08:36:21.783Z,11.10
2023-03-24T08:38:51.712Z,11.20
2023-03-24T08:41:19.064Z,11.20
2023-03-24T08:43:46.648Z,11.20
2023-03-24T08:46:15.319Z,11.30
2023-03-24T08:48:43.900Z,11.30
2023-03-24T08:51:16.566Z,11.30
2023-03-24T08:53:44.581Z,11.30
2023-03-24T08:56:11.912Z,11.40
2023-03-24T08:58:39.440Z,11.40
2023-03-24T09:01:07.640Z,12.60
2023-03-24T09:03:36.007Z,11.90
2023-03-24T09:06:03.445Z,12.50
2023-03-24T09:08:31.562Z,11.60
2023-03-24T09:10:58.937Z,11.90
2023-03-24T09:13:26.293Z,11.90
2023-03-24T09:15:59.174Z,11.90
2023-03-24T09:18:26.682Z,12.00
2023-03-24T09:20:54.648Z,12.90
2023-03-24T09:23:22.417Z,12.10
2023-03-24T09:25:51.971Z,12.70
2023-03-24T09:28:20.128Z,12.30
2023-03-24T09:30:47.684Z,12.30
2023-03-24T09:33:15.395Z,12.30
2023-03-24T09:35:43.136Z,12.40
2023-03-24T09:38:12.305Z,12.70
2023-03-24T09:40:42.555Z,12.30
2023-03-24T09:43:36.449Z,12.70
2023-03-24T09:46:07.625Z,12.20
2023-03-24T09:48:51.073Z,12.20
2023-03-24T09:51:29.412Z,12.30
2023-03-24T09:54:09.477Z,12.20
2023-03-24T09:56:39.205Z,12.20
2023-03-24T09:59:11.418Z,12.80
2023-03-24T10:01:38.878Z,12.40
2023-03-24T10:04:18.550Z,12.20
2023-03-24T10:06:49.008Z,12.30
2023-03-24T10:09:28.609Z,12.10
2023-03-24T10:12:29.880Z,12.20
2023-03-24T10:18:06.298Z,12.00
2023-03-24T10:21:00.180Z,12.10
2023-03-24T10:23:47.622Z,12.40
2023-03-24T10:26:31.855Z,12.00
2023-03-24T10:29:05.050Z,11.70
2023-03-24T10:31:34.870Z,11.90
2023-03-24T10:34:02.706Z,12.50
2023-03-24T10:36:30.973Z,11.80
2023-03-24T10:39:01.887Z,11.90
2023-03-24T10:41:36.461Z,11.70
2023-03-24T10:44:03.896Z,11.60
2023-03-24T10:46:32.135Z,11.30
2023-03-24T10:49:14.644Z,11.90
2023-03-24T10:51:47.631Z,11.30
2023-03-24T10:54:21.061Z,12.30
2023-03-24T10:56:51.194Z,12.10
2023-03-24T10:59:49.075Z,12.40
2023-03-24T11:02:23.575Z,11.90
2023-03-24T11:05:15.511Z,12.20
2023-03-24T11:07:46.745Z,12.30
2023-03-24T11:10:18.774Z,12.60
2023-03-24T11:12:55.070Z,12.70
2023-03-24T11:15:34.355Z,12.90
2023-03-24T11:18:18.179Z,13.20
2023-03-24T11:21:06.882Z,13.30
2023-03-24T11:23:45.139Z,13.50
2023-03-24T11:26:16.917Z,13.40
2023-03-24T11:28:52.542Z,13.80
2023-03-24T11:31:30.507Z,14.00
2023-03-24T11:36:32.956Z,13.90
2023-03-24T11:39:03.692Z,13.70
2023-03-24T11:41:31.101Z,13.50
2023-03-24T11:44:24.437Z,13.50
2023-03-24T11:47:21.682Z,13.10
2023-03-24T11:50:01.581Z,12.60
2023-03-24T11:52:34.181Z,12.00
2023-03-24T11:55:01.470Z,11.50
2023-03-24T11:57:59.657Z,12.00
2023-03-24T12:00:43.542Z,10.90
2023-03-24T12:03:28.073Z,11.10
2023-03-24T12:06:33.103Z,10.40
2023-03-24T12:09:33.382Z,10.00
2023-03-24T12:12:28.578Z,10.10
2023-03-24T12:15:27.135Z,10.40
2023-03-24T12:18:18.772Z,10.70
2023-03-24T12:21:14.732Z,11.10
2023-03-24T12:23:51.005Z,11.70
2023-03-24T12:26:32.397Z,12.30
2023-03-24T12:29:36.680Z,12.80
2023-03-24T12:32:25.915Z,12.90
2023-03-24T12:35:12.684Z,12.90
2023-03-24T12:37:52.309Z,12.80
2023-03-24T12:40:41.728Z,12.60
2023-03-24T12:43:42.852Z,12.50
2023-03-24T12:46:44.848Z,12.80
2023-03-24T12:49:39.393Z,12.90
2023-03-24T12:52:37.160Z,12.80
2023-03-24T12:55:12.799Z,13.00
2023-03-24T12:57:48.882Z,13.00
2023-03-24T13:00:23.962Z,13.00
2023-03-24T13:03:01.614Z,12.90
2023-03-24T13:05:35.236Z,12.80
2023-03-24T13:08:16.632Z,12.60
2023-03-24T13:10:44.509Z,12.50
2023-03-24T13:13:28.066Z,12.20
2023-03-24T13:16:06.615Z,12.00
2023-03-24T13:18:47.555Z,11.40
2023-03-24T13:21:19.343Z,10.60
2023-03-24T13:24:11.093Z,10.20
2023-03-24T13:26:58.507Z,10.00
2023-03-24T13:29:53.233Z,9.90
2023-03-24T13:32:20.740Z,10.30
2023-03-24T13:35:03.181Z,11.30
2023-03-24T13:38:04.633Z,11.70
2023-03-24T13:40:37.530Z,11.00
2023-03-24T13:43:13.435Z,10.90
2023-03-24T13:45:48.029Z,11.30
2023-03-24T13:48:18.367Z,11.90
2023-03-24T13:50:56.793Z,10.90
2023-03-24T13:53:40.309Z,10.90
2023-03-24T13:56:10.104Z,11.10
2023-03-24T13:58:55.668Z,11.60
2023-03-24T14:01:39.450Z,11.40
2023-03-24T14:04:19.284Z,11.60
2023-03-24T14:06:47.695Z,12.10
2023-03-24T14:09:22.824Z,12.60
2023-03-24T14:12:09.826Z,13.00
2023-03-24T14:15:17.599Z,13.40
2023-03-24T14:17:48.050Z,13.40
2023-03-24T14:20:33.762Z,13.50
2023-03-24T14:23:02.579Z,13.40
2023-03-24T14:25:32.906Z,13.40
2023-03-24T14:28:31.848Z,13.60
2023-03-24T14:31:17.297Z,13.60
2023-03-24T14:33:54.085Z,13.50
2023-03-24T14:36:39.614Z,13.70
2023-03-24T14:39:33.069Z,13.60
2023-03-24T14:42:00.635Z,13.80
2023-03-24T14:44:51.045Z,13.40
2023-03-24T14:47:37.458Z,13.30
2023-03-24T14:50:21.796Z,14.00
2023-03-24T14:52:53.779Z,14.50
2023-03-24T14:55:22.150Z,14.40
2023-03-24T14:58:00.021Z,14.30
2023-03-24T15:00:40.507Z,13.90
2023-03-24T15:03:17.941Z,13.60
2023-03-24T15:05:45.606Z,13.40
2023-03-24T15:08:22.024Z,12.00
2023-03-24T15:11:04.049Z,12.60
2023-03-24T15:13:39.937Z,12.60
2023-03-24T15:16:28.804Z,13.20
2023-03-24T15:19:02.867Z,13.50
2023-03-24T15:21:33.844Z,14.10
2023-03-24T15:24:02.603Z,14.20
2023-03-24T15:26:31.699Z,14.20
2023-03-24T15:29:06.201Z,13.90
2023-03-24T15:31:34.930Z,13.60
2023-03-24T15:34:04.538Z,13.60
2023-03-24T15:36:39.837Z,13.50
2023-03-24T15:39:18.901Z,13.50
2023-03-24T15:41:50.117Z,13.60
2023-03-24T15:44:20.948Z,13.50
2023-03-24T15:46:49.097Z,13.60
2023-03-24T15:49:37.176Z,13.40
2023-03-24T15:52:37.778Z,13.90
2023-03-24T15:55:26.594Z,13.90
2023-03-24T15:57:57.628Z,14.00
2023-03-24T16:00:29.638Z,14.00
2023-03-24T16:03:00.864Z,14.00
2023-03-24T16:05:32.863Z,14.70
2023-03-24T16:08:06.857Z,14.80
2023-03-24T16:10:55.888Z,14.30
2023-03-24T16:16:12.956Z,13.60
2023-03-24T16:18:46.034Z,14.00
2023-03-24T16:21:19.798Z,13.60
2023-03-24T16:26:29.671Z,15.20
2023-03-24T16:29:20.611Z,15.10
2023-03-24T16:31:50.383Z,14.90
2023-03-24T16:34:21.722Z,15.20
2023-03-24T16:36:54.343Z,15.30
2023-03-24T16:39:24.986Z,15.70
2023-03-24T16:41:52.580Z,15.60
2023-03-24T16:44:20.808Z,14.80
2023-03-24T16:46:51.971Z,15.00
2023-03-24T16:49:20.369Z,14.70
2023-03-24T16:51:48.334Z,13.80
2023-03-24T16:54:15.962Z,13.30
2023-03-24T16:56:43.449Z,12.20
2023-03-24T16:59:14.848Z,12.50
2023-03-24T17:01:45.959Z,12.50
2023-03-24T17:04:19.651Z,12.70
2023-03-24T17:06:50.893Z,10.70
2023-03-24T17:09:18.384Z,12.50
2023-03-24T17:11:50.272Z,12.20
2023-03-24T17:14:17.754Z,12.30
2023-03-24T17:16:48.401Z,12.50
2023-03-24T17:19:18.242Z,12.10
2023-03-24T17:26:42.671Z,11.50
2023-03-24T17:29:12.605Z,11.10
2023-03-24T17:31:42.917Z,10.60
2023-03-24T17:36:45.085Z,9.70
2023-03-24T17:39:17.764Z,9.70
2023-03-24T17:41:45.173Z,9.30
2023-03-24T17:44:12.832Z,9.10
2023-03-24T17:46:40.365Z,8.90
2023-03-24T17:49:08.026Z,8.80
2023-03-24T17:51:35.395Z,8.80
2023-03-24T17:54:04.090Z,8.70
2023-03-24T17:56:32.009Z,8.70
2023-03-24T17:58:59.301Z,8.80
2023-03-24T18:01:29.428Z,9.90
2023-03-24T18:03:57.839Z,8.80
2023-03-24T18:08:55.280Z,8.80
2023-03-24T18:13:50.657Z,9.10
2023-03-24T18:16:21.923Z,6.80
2023-03-24T18:18:51.399Z,8.70
2023-03-24T18:21:19.268Z,8.80
2023-03-24T18:23:48.437Z,8.60
2023-03-24T18:26:17.494Z,8.40
2023-03-24T18:28:46.018Z,8.50
2023-03-24T18:31:16.424Z,9.20
2023-03-24T18:33:46.020Z,8.50
2023-03-24T18:36:21.068Z,8.50
2023-03-24T18:38:48.957Z,9.80
2023-03-24T18:43:47.552Z,8.50
2023-03-24T18:46:16.318Z,9.10
2023-03-24T18:48:44.190Z,8.80
2023-03-24T18:51:12.182Z,8.60
2023-03-24T18:53:40.168Z,8.40
2023-03-24T18:56:08.528Z,8.40
2023-03-24T18:58:38.193Z,8.40
2023-03-24T19:01:09.140Z,8.20
2023-03-24T19:03:39.057Z,8.70
2023-03-24T19:06:08.450Z,8.30
2023-03-24T19:08:38.112Z,8.30
2023-03-24T19:11:05.616Z,8.40
2023-03-24T19:13:33.864Z,9.90
2023-03-24T19:16:01.221Z,9.10
2023-03-24T19:18:28.552Z,8.60
2023-03-24T19:20:58.082Z,8.90
2023-03-24T19:23:26.209Z,8.80
2023-03-24T19:25:55.213Z,8.70
2023-03-24T19:28:24.068Z,9.00
2023-03-24T19:30:51.576Z,10.20
2023-03-24T19:33:19.693Z,8.80
2023-03-24T19:35:48.820Z,9.20
2023-03-24T19:38:17.809Z,8.70
2023-03-24T19:40:45.187Z,9.10
2023-03-24T19:43:12.785Z,10.20
2023-03-24T19:45:43.146Z,8.40
2023-03-24T19:48:10.950Z,9.20
2023-03-24T19:50:38.520Z,8.60
2023-03-24T19:53:06.006Z,8.90
2023-03-24T19:55:33.686Z,9.00
2023-03-24T19:58:01.138Z,8.90
2023-03-24T20:00:28.603Z,9.00
2023-03-24T20:02:56.699Z,9.90
2023-03-24T20:05:24.644Z,9.00
2023-03-24T20:07:55.325Z,9.10
2023-03-24T20:10:22.783Z,9.10
2023-03-24T20:15:18.150Z,9.10
2023-03-24T20:17:45.849Z,9.20
2023-03-24T20:20:16.680Z,9.10
2023-03-24T20:22:48.672Z,9.10
2023-03-24T20:25:18.413Z,9.40
2023-03-24T20:27:47.526Z,8.80
2023-03-24T20:30:20.114Z,9.10
2023-03-24T20:32:47.914Z,9.00
2023-03-24T20:35:16.075Z,9.10
2023-03-24T20:37:43.627Z,9.00
2023-03-24T20:40:11.181Z,9.20
2023-03-24T20:42:38.584Z,9.00
2023-03-24T20:45:07.581Z,9.00
2023-03-24T20:47:36.608Z,8.80
2023-03-24T20:50:06.042Z,9.20
2023-03-24T20:52:33.584Z,9.00
2023-03-24T20:55:05.512Z,9.10
2023-03-24T20:57:33.326Z,9.00
2023-03-24T21:00:00.958Z,9.10
2023-03-24T21:02:29.628Z,9.20
2023-03-24T21:04:56.994Z,9.10
2023-03-24T21:09:51.883Z,10.90
2023-03-24T21:12:19.148Z,10.70
2023-03-24T21:17:16.070Z,9.10
2023-03-24T21:19:46.849Z,9.10
2023-03-24T21:22:15.305Z,9.50
2023-03-24T21:24:42.781Z,9.30
2023-03-24T21:27:10.725Z,9.10
2023-03-24T21:32:05.685Z,9.20
2023-03-24T21:34:33.008Z,9.30
2023-03-24T21:37:01.648Z,9.40
2023-03-24T21:39:29.234Z,9.20
2023-03-24T21:44:24.951Z,9.20
2023-03-24T21:49:22.723Z,9.20
2023-03-24T21:51:54.769Z,9.30
2023-03-24T21:54:23.578Z,9.40
2023-03-24T21:56:50.895Z,9.30
2023-03-24T21:59:18.244Z,9.30
2023-03-24T22:01:45.636Z,9.60
2023-03-24T22:04:13.481Z,9.40
2023-03-24T22:06:40.770Z,10.50
2023-03-24T22:09:10.451Z,10.30
2023-03-24T22:11:42.938Z,10.70
2023-03-24T22:14:12.521Z,11.10
2023-03-24T22:16:39.983Z,9.50
2023-03-24T22:19:07.339Z,9.60
2023-03-24T22:24:02.157Z,9.50
2023-03-24T22:26:29.484Z,9.50
2023-03-24T22:31:26.180Z,9.60
2023-03-24T22:33:54.258Z,9.70
2023-03-24T22:36:21.710Z,9.60
2023-03-24T22:41:17.004Z,9.50
2023-03-24T22:43:46.104Z,9.80
2023-03-24T22:48:41.749Z,9.50
2023-03-24T22:51:10.112Z,9.40
2023-03-24T22:53:37.422Z,9.40
2023-03-24T22:56:06.329Z,9.50
2023-03-24T22:58:35.716Z,9.40
2023-03-24T23:01:04.010Z,9.50
2023-03-24T23:03:31.464Z,9.40
2023-03-24T23:06:03.593Z,9.40
2023-03-24T23:08:34.833Z,10.10
2023-03-24T23:11:02.232Z,10.20
2023-03-24T23:13:30.720Z,9.60
2023-03-24T23:15:58.200Z,9.60
2023-03-24T23:18:25.474Z,9.30
2023-03-24T23:21:02.545Z,9.20
2023-03-24T23:23:30.086Z,9.30
2023-03-24T23:25:57.465Z,9.40
2023-03-24T23:28:25.079Z,9.30
2023-03-24T23:30:53.626Z,10.20
2023-03-24T23:33:22.341Z,9.20
2023-03-24T23:35:55.677Z,9.20
2023-03-24T23:38:23.537Z,9.20
2023-03-24T23:40:50.886Z,9.20
2023-03-24T23:43:18.176Z,9.20
2023-03-24T23:45:46.665Z,9.30
2023-03-24T23:48:14.109Z,9.10
2023-03-24T23:50:42.913Z,9.10
2023-03-24T23:53:10.268Z,9.10
2023-03-24T23:55:37.810Z,9.30
2023-03-24T23:58:05.110Z,9.20
